createdAt,value
2019-04-04T00:01:43.637Z,81.27
2019-04-04T00:05:50.465Z,80.38
2019-04-04T00:09:57.349Z,80.81
2019-04-04T00:14:04.198Z,80.54
2019-04-04T00:18:10.960Z,80.19
2019-04-04T00:22:17.891Z,80.15
2019-04-04T00:26:24.711Z,80.43
2019-04-04T00:30:32.851Z,80.11
2019-04-04T00:34:39.573Z,80.50
2019-04-04T00:38:46.471Z,81.19
2019-04-04T00:42:53.292Z,81.07
2019-04-04T00:47:01.836Z,81.83
2019-04-04T00:51:08.709Z,81.80
2019-04-04T00:55:15.906Z,82.31
2019-04-04T00:59:23.673Z,81.48
2019-04-04T01:03:30.725Z,82.13
2019-04-04T01:07:37.724Z,82.09
2019-04-04T01:11:45.266Z,82.13
2019-04-04T01:15:51.949Z,82.04
2019-04-04T01:19:59.479Z,82.48
2019-04-04T01:24:06.266Z,82.66
2019-04-04T01:28:13.044Z,81.87
2019-04-04T01:32:22.668Z,82.57
2019-04-04T01:36:30.458Z,82.89
2019-04-04T01:40:37.400Z,82.36
2019-04-04T01:44:45.237Z,82.63
2019-04-04T01:48:51.951Z,81.97
2019-04-04T01:52:59.382Z,82.18
2019-04-04T01:57:08.122Z,81.57
2019-04-04T02:01:16.606Z,82.35
2019-04-04T02:05:26.808Z,81.91
2019-04-04T02:09:34.605Z,81.82
2019-04-04T02:13:40.883Z,81.72
2019-04-04T02:17:48.295Z,81.19
2019-04-04T02:21:55.043Z,81.56
2019-04-04T02:26:04.904Z,81.38
2019-04-04T02:30:15.208Z,81.72
2019-04-04T02:34:20.251Z,81.92
2019-04-04T02:38:28.125Z,81.20
2019-04-04T02:42:35.426Z,81.29
2019-04-04T02:46:45.520Z,81.46
2019-04-04T02:50:51.100Z,81.19
2019-04-04T02:54:58.592Z,81.05
2019-04-04T02:59:05.532Z,81.59
2019-04-04T03:03:12.279Z,80.73
2019-04-04T03:07:18.944Z,81.25
2019-04-04T03:11:30.533Z,81.09
2019-04-04T03:15:41.084Z,81.22
2019-04-04T03:19:46.244Z,80.97
2019-04-04T03:23:53.777Z,80.97
2019-04-04T03:28:01.734Z,81.32
2019-04-04T03:32:14.385Z,81.51
2019-04-04T03:36:20.240Z,81.34
2019-04-04T03:40:27.093Z,80.74
2019-04-04T03:44:33.788Z,80.99
2019-04-04T03:48:40.579Z,80.60
2019-04-04T03:52:47.301Z,80.90
2019-04-04T03:56:54.029Z,80.90
2019-04-04T04:01:01.682Z,81.29
2019-04-04T04:05:34.016Z,80.30
2019-04-04T04:09:37.559Z,80.72
2019-04-04T04:13:48.912Z,80.38
2019-04-04T04:17:52.631Z,81.32
2019-04-04T04:21:59.333Z,82.09
2019-04-04T04:26:09.325Z,82.58
2019-04-04T04:30:14.954Z,81.54
2019-04-04T04:34:21.645Z,81.95
2019-04-04T04:38:28.445Z,82.98
2019-04-04T04:42:35.227Z,81.70
2019-04-04T04:46:41.939Z,81.49
2019-04-04T04:50:48.767Z,81.47
2019-04-04T04:54:55.708Z,80.96
2019-04-04T04:59:02.578Z,81.07
2019-04-04T05:03:10.409Z,81.03
2019-04-04T05:07:17.115Z,80.49
2019-04-04T05:11:23.843Z,81.11
2019-04-04T05:15:32.440Z,81.12
2019-04-04T05:19:39.032Z,81.08
2019-04-04T05:23:47.002Z,80.56
2019-04-04T05:27:54.272Z,81.67
2019-04-04T05:32:00.952Z,81.40
2019-04-04T05:36:07.678Z,82.02
2019-04-04T05:40:16.051Z,81.59
2019-04-04T05:44:22.731Z,81.40
2019-04-04T05:48:29.716Z,80.80
2019-04-04T05:52:36.577Z,81.56
2019-04-04T05:56:44.733Z,81.20
2019-04-04T06:00:51.940Z,80.67
2019-04-04T06:04:58.705Z,80.64
2019-04-04T06:09:07.587Z,80.30
2019-04-04T06:13:14.262Z,80.29
2019-04-04T06:17:21.866Z,80.28
2019-04-04T06:21:28.594Z,80.02
2019-04-04T06:25:36.008Z,79.99
2019-04-04T06:29:42.699Z,79.92
2019-04-04T06:33:49.418Z,79.72
2019-04-04T06:37:56.257Z,79.83
2019-04-04T06:42:03.952Z,79.61
2019-04-04T06:46:11.006Z,79.43
2019-04-04T06:50:17.725Z,79.37
2019-04-04T06:54:25.688Z,81.67
2019-04-04T06:58:32.820Z,79.46
2019-04-04T07:02:39.512Z,79.07
2019-04-04T07:06:46.216Z,79.93
2019-04-04T07:10:58.201Z,79.63
2019-04-04T07:15:02.360Z,79.66
2019-04-04T07:19:09.162Z,79.50
2019-04-04T07:23:16.842Z,79.33
2019-04-04T07:27:24.570Z,79.17
2019-04-04T07:31:33.435Z,79.31
2019-04-04T07:35:39.624Z,79.21
2019-04-04T07:39:46.419Z,78.78
2019-04-04T07:43:53.181Z,78.72
2019-04-04T07:47:59.796Z,78.76
2019-04-04T07:52:08.440Z,78.34
2019-04-04T07:56:15.185Z,78.38
2019-04-04T08:00:21.904Z,78.39
2019-04-04T08:04:28.598Z,78.11
2019-04-04T08:08:35.262Z,77.98
2019-04-04T08:12:41.954Z,77.83
2019-04-04T08:16:48.726Z,77.81
2019-04-04T08:20:55.636Z,77.98
2019-04-04T08:25:03.609Z,77.91
2019-04-04T08:29:10.475Z,77.54
2019-04-04T08:33:17.451Z,77.60
2019-04-04T08:37:24.140Z,77.22
2019-04-04T08:41:30.823Z,77.14
2019-04-04T08:45:37.487Z,76.67
2019-04-04T08:49:44.300Z,77.03
2019-04-04T08:53:53.836Z,76.75
2019-04-04T08:58:00.567Z,76.58
2019-04-04T09:02:07.282Z,76.02
2019-04-04T09:06:14.026Z,76.14
2019-04-04T09:10:20.922Z,75.33
2019-04-04T09:14:27.764Z,75.44
2019-04-04T09:18:34.681Z,75.14
2019-04-04T09:22:41.609Z,75.07
2019-04-04T09:26:48.535Z,74.84
2019-04-04T09:30:55.535Z,74.79
2019-04-04T09:35:02.496Z,74.15
2019-04-04T09:39:10.413Z,74.14
2019-04-04T09:43:17.220Z,73.75
2019-04-04T09:47:24.377Z,73.52
2019-04-04T09:51:31.256Z,73.21
2019-04-04T09:55:38.295Z,73.19
2019-04-04T09:59:45.187Z,72.54
2019-04-04T10:03:53.068Z,72.39
2019-04-04T10:07:59.787Z,72.15
2019-04-04T10:12:06.639Z,71.55
2019-04-04T10:16:13.361Z,71.81
2019-04-04T10:20:20.136Z,71.53
2019-04-04T10:24:26.935Z,71.31
2019-04-04T10:28:33.853Z,70.92
2019-04-04T10:32:41.808Z,71.89
2019-04-04T10:36:49.923Z,71.09
2019-04-04T10:40:56.707Z,70.84
2019-04-04T10:45:03.571Z,71.16
2019-04-04T10:49:11.098Z,70.68
2019-04-04T10:53:18.074Z,69.57
2019-04-04T10:57:24.772Z,70.34
2019-04-04T11:01:31.717Z,70.47
2019-04-04T11:05:38.572Z,70.76
2019-04-04T11:09:45.425Z,70.07
2019-04-04T11:13:52.258Z,69.76
2019-04-04T11:17:59.238Z,69.99
2019-04-04T11:22:06.247Z,69.71
2019-04-04T11:26:13.123Z,69.98
2019-04-04T11:30:21.812Z,69.83
2019-04-04T11:34:28.800Z,69.96
2019-04-04T11:38:35.570Z,70.11
2019-04-04T11:42:42.548Z,69.64
2019-04-04T11:46:49.465Z,69.94
2019-04-04T11:50:56.545Z,69.83
2019-04-04T11:55:03.845Z,69.86
2019-04-04T11:59:10.582Z,69.99
2019-04-04T12:03:17.335Z,70.03
2019-04-04T12:07:24.229Z,69.94
2019-04-04T12:11:31.052Z,69.98
2019-04-04T12:15:37.854Z,70.06
2019-04-04T12:19:44.581Z,69.81
2019-04-04T12:23:51.766Z,70.63
2019-04-04T12:27:59.092Z,71.12
2019-04-04T12:32:05.809Z,70.64
2019-04-04T12:36:24.105Z,70.90
2019-04-04T12:40:21.463Z,70.93
2019-04-04T12:44:28.374Z,70.99
2019-04-04T12:48:35.202Z,70.94
2019-04-04T12:52:42.024Z,70.99
2019-04-04T12:56:49.034Z,71.36
2019-04-04T13:00:55.824Z,70.85
2019-04-04T13:05:02.628Z,70.96
2019-04-04T13:09:10.375Z,70.63
2019-04-04T13:13:17.137Z,71.37
2019-04-04T13:17:23.960Z,71.80
2019-04-04T13:21:30.607Z,71.33
2019-04-04T13:25:37.304Z,71.17
2019-04-04T13:29:43.966Z,71.94
2019-04-04T13:33:50.729Z,72.73
2019-04-04T13:37:57.426Z,75.78
2019-04-04T13:42:04.130Z,77.25
2019-04-04T13:46:11.218Z,77.69
2019-04-04T13:50:20.453Z,77.94
2019-04-04T13:54:26.737Z,79.25
2019-04-04T13:58:33.680Z,78.59
2019-04-04T14:02:40.411Z,79.02
2019-04-04T14:06:47.088Z,78.91
2019-04-04T14:10:58.333Z,79.17
2019-04-04T14:15:02.224Z,79.50
2019-04-04T14:19:09.045Z,78.90
2019-04-04T14:23:16.062Z,79.97
2019-04-04T14:27:22.752Z,79.34
2019-04-04T14:31:29.434Z,80.16
2019-04-04T14:35:36.086Z,79.94
2019-04-04T14:39:42.816Z,79.40
2019-04-04T14:43:49.605Z,78.50
2019-04-04T14:47:56.293Z,78.11
2019-04-04T14:52:03.052Z,77.35
2019-04-04T14:56:09.758Z,77.97
2019-04-04T15:00:18.297Z,77.43
2019-04-04T15:04:24.948Z,76.39
2019-04-04T15:08:31.737Z,76.14
2019-04-04T15:12:40.681Z,75.12
2019-04-04T15:16:48.889Z,75.04
2019-04-04T15:20:57.005Z,75.14
2019-04-04T15:25:03.889Z,74.06
2019-04-04T15:29:10.893Z,73.83
2019-04-04T15:33:17.993Z,74.12
2019-04-04T15:37:26.186Z,74.13
2019-04-04T15:41:37.319Z,73.79
2019-04-04T15:45:42.926Z,73.25
2019-04-04T15:49:50.179Z,72.40
2019-04-04T15:53:57.782Z,74.03
2019-04-04T15:58:04.594Z,74.45
2019-04-04T16:02:17.312Z,73.08
2019-04-04T16:06:25.394Z,72.55
2019-04-04T16:10:32.315Z,71.89
2019-04-04T16:14:39.167Z,71.84
2019-04-04T16:18:48.823Z,71.09
2019-04-04T16:22:57.936Z,71.07
2019-04-04T16:27:04.711Z,71.56
2019-04-04T16:31:12.620Z,71.14
2019-04-04T16:35:19.411Z,71.67
2019-04-04T16:39:26.134Z,72.93
2019-04-04T16:43:33.040Z,72.94
2019-04-04T16:47:39.807Z,72.64
2019-04-04T16:51:48.272Z,73.45
2019-04-04T16:55:55.270Z,73.46
2019-04-04T17:00:02.578Z,73.80
2019-04-04T17:04:09.480Z,74.68
2019-04-04T17:08:16.278Z,75.26
2019-04-04T17:12:23.183Z,75.76
2019-04-04T17:16:30.356Z,75.88
2019-04-04T17:20:38.778Z,75.62
2019-04-04T17:24:45.494Z,75.75
2019-04-04T17:28:52.760Z,75.41
2019-04-04T17:33:00.000Z,75.45
2019-04-04T17:37:07.590Z,76.09
2019-04-04T17:41:14.533Z,76.00
2019-04-04T17:45:23.145Z,75.72
2019-04-04T17:49:30.697Z,76.31
2019-04-04T17:53:39.892Z,75.23
2019-04-04T17:57:46.963Z,77.32
2019-04-04T18:01:58.412Z,76.96
2019-04-04T18:06:06.013Z,77.30
2019-04-04T18:10:20.051Z,77.59
2019-04-04T18:14:33.002Z,77.51
2019-04-04T18:18:39.797Z,77.02
2019-04-04T18:22:46.736Z,76.36
2019-04-04T18:26:54.880Z,76.18
2019-04-04T18:31:01.687Z,75.54
2019-04-04T18:35:10.658Z,76.01
2019-04-04T18:39:26.372Z,75.20
2019-04-04T18:43:27.630Z,75.78
2019-04-04T18:47:34.447Z,75.98
2019-04-04T18:51:41.487Z,75.85
2019-04-04T18:55:48.251Z,76.52
2019-04-04T18:59:58.280Z,76.29
2019-04-04T19:04:05.195Z,76.80
2019-04-04T19:08:12.108Z,77.06
2019-04-04T19:12:18.923Z,77.04
2019-04-04T19:16:26.063Z,76.91
2019-04-04T19:20:36.123Z,76.94
2019-04-04T19:24:44.587Z,76.22
2019-04-04T19:28:57.410Z,75.79
2019-04-04T19:33:04.849Z,76.94
2019-04-04T19:37:12.208Z,76.91
2019-04-04T19:41:19.802Z,77.21
2019-04-04T19:45:27.220Z,78.12
2019-04-04T19:49:34.148Z,77.13
2019-04-04T19:53:41.122Z,77.90
2019-04-04T19:57:49.313Z,78.27
2019-04-04T20:01:56.387Z,78.16
2019-04-04T20:06:03.360Z,77.96
2019-04-04T20:10:10.847Z,77.75
2019-04-04T20:14:18.234Z,77.41
2019-04-04T20:18:25.321Z,78.56
2019-04-04T20:22:32.887Z,78.64
2019-04-04T20:26:40.510Z,77.47
2019-04-04T20:30:49.282Z,78.71
2019-04-04T20:34:56.415Z,78.67
2019-04-04T20:39:04.712Z,78.38
2019-04-04T20:43:14.261Z,78.92
2019-04-04T20:47:21.018Z,80.01
2019-04-04T20:51:27.852Z,79.32
2019-04-04T20:55:34.657Z,80.74
2019-04-04T20:59:47.884Z,82.31
2019-04-04T21:03:54.559Z,80.33
2019-04-04T21:08:02.467Z,80.87
2019-04-04T21:12:11.306Z,79.74
2019-04-04T21:16:18.847Z,80.54
2019-04-04T21:20:26.082Z,79.94
2019-04-04T21:24:32.895Z,80.68
2019-04-04T21:28:39.641Z,80.74
2019-04-04T21:32:46.442Z,80.51
2019-04-04T21:36:53.405Z,80.96
2019-04-04T21:41:00.931Z,80.67
2019-04-04T21:45:08.129Z,80.69
2019-04-04T21:49:15.036Z,80.12
2019-04-04T21:53:23.438Z,80.42
2019-04-04T21:57:30.120Z,80.58
2019-04-04T22:01:36.900Z,80.05
2019-04-04T22:05:44.907Z,80.47
2019-04-04T22:09:51.643Z,79.22
2019-04-04T22:13:58.484Z,79.55
2019-04-04T22:18:05.471Z,79.96
2019-04-04T22:22:12.154Z,79.97
2019-04-04T22:26:18.905Z,80.10
2019-04-04T22:30:25.753Z,79.87
2019-04-04T22:34:33.191Z,79.82
2019-04-04T22:38:39.851Z,79.91
2019-04-04T22:42:49.092Z,80.31
2019-04-04T22:46:55.958Z,80.53
2019-04-04T22:51:02.611Z,80.20
2019-04-04T22:55:10.400Z,80.49
2019-04-04T22:59:17.276Z,80.13
2019-04-04T23:03:27.227Z,80.47
2019-04-04T23:07:34.417Z,80.23
2019-04-04T23:11:45.440Z,80.78
2019-04-04T23:15:52.671Z,79.76
2019-04-04T23:20:01.426Z,80.00
2019-04-04T23:24:08.422Z,79.92
2019-04-04T23:28:15.189Z,80.05
2019-04-04T23:32:22.081Z,79.21
2019-04-04T23:36:34.793Z,79.55
2019-04-04T23:40:37.242Z,79.69
2019-04-04T23:44:43.914Z,80.64
2019-04-04T23:48:50.653Z,79.74
2019-04-04T23:52:57.350Z,79.29
2019-04-04T23:57:04.036Z,78.76
